sensor_id;sensor_type;location;lat;lon;timestamp;temperature;humidity
25058;DHT22;13057;50.978;11.034;2022-12-29T00:01:30;10.90;99.90
25058;DHT22;13057;50.978;11.034;2022-12-29T00:03:56;10.90;99.90
25058;DHT22;13057;50.978;11.034;2022-12-29T00:06:23;10.90;99.90
25058;DHT22;13057;50.978;11.034;2022-12-29T00:08:49;10.90;99.90
25058;DHT22;13057;50.978;11.034;2022-12-29T00:11:18;10.90;99.90
25058;DHT22;13057;50.978;11.034;2022-12-29T00:13:44;10.90;99.90
25058;DHT22;13057;50.978;11.034;2022-12-29T00:16:22;10.80;99.90
25058;DHT22;13057;50.978;11.034;2022-12-29T00:18:48;10.80;99.90
25058;DHT22;13057;50.978;11.034;2022-12-29T00:21:16;10.90;99.90
25058;DHT22;13057;50.978;11.034;2022-12-29T00:23:54;10.90;99.90
25058;DHT22;13057;50.978;11.034;2022-12-29T00:26:32;10.90;99.90
25058;DHT22;13057;50.978;11.034;2022-12-29T00:29:10;11.00;99.90
25058;DHT22;13057;50.978;11.034;2022-12-29T00:31:47;10.90;99.90
25058;DHT22;13057;50.978;11.034;2022-12-29T00:34:25;11.00;99.90
25058;DHT22;13057;50.978;11.034;2022-12-29T00:37:03;11.00;99.90
25058;DHT22;13057;50.978;11.034;2022-12-29T00:39:29;11.00;99.90
25058;DHT22;13057;50.978;11.034;2022-12-29T00:42:08;11.00;99.90
25058;DHT22;13057;50.978;11.034;2022-12-29T00:44:46;11.00;99.90
25058;DHT22;13057;50.978;11.034;2022-12-29T00:47:12;11.10;99.90
25058;DHT22;13057;50.978;11.034;2022-12-29T00:49:38;11.00;99.90
25058;DHT22;13057;50.978;11.034;2022-12-29T00:52:06;10.90;99.90
25058;DHT22;13057;50.978;11.034;2022-12-29T00:54:34;10.90;99.90
25058;DHT22;13057;50.978;11.034;2022-12-29T00:57:02;10.90;99.90
25058;DHT22;13057;50.978;11.034;2022-12-29T00:59:28;10.80;99.90
25058;DHT22;13057;50.978;11.034;2022-12-29T01:01:54;10.80;99.90
25058;DHT22;13057;50.978;11.034;2022-12-29T01:04:22;10.80;99.90
25058;DHT22;13057;50.978;11.034;2022-12-29T01:06:48;10.80;99.90
25058;DHT22;13057;50.978;11.034;2022-12-29T01:09:15;10.70;99.90
25058;DHT22;13057;50.978;11.034;2022-12-29T01:11:54;10.80;99.90
25058;DHT22;13057;50.978;11.034;2022-12-29T01:14:20;10.70;99.90
25058;DHT22;13057;50.978;11.034;2022-12-29T01:16:47;10.80;99.90
25058;DHT22;13057;50.978;11.034;2022-12-29T01:19:14;10.80;99.90
25058;DHT22;13057;50.978;11.034;2022-12-29T01:21:40;10.80;99.90
25058;DHT22;13057;50.978;11.034;2022-12-29T01:24:06;10.70;99.90
25058;DHT22;13057;50.978;11.034;2022-12-29T01:26:32;10.80;99.90
25058;DHT22;13057;50.978;11.034;2022-12-29T01:28:58;10.70;99.90
25058;DHT22;13057;50.978;11.034;2022-12-29T01:31:24;10.70;99.90
25058;DHT22;13057;50.978;11.034;2022-12-29T01:33:50;10.80;99.90
25058;DHT22;13057;50.978;11.034;2022-12-29T01:36:17;10.80;99.90
25058;DHT22;13057;50.978;11.034;2022-12-29T01:38:43;10.80;99.90
25058;DHT22;13057;50.978;11.034;2022-12-29T01:41:11;10.80;99.90
25058;DHT22;13057;50.978;11.034;2022-12-29T01:43:41;10.90;99.90
25058;DHT22;13057;50.978;11.034;2022-12-29T01:46:17;10.90;99.90
25058;DHT22;13057;50.978;11.034;2022-12-29T01:48:46;10.90;99.90
25058;DHT22;13057;50.978;11.034;2022-12-29T01:51:14;10.80;99.90
25058;DHT22;13057;50.978;11.034;2022-12-29T01:53:40;10.80;99.90
25058;DHT22;13057;50.978;11.034;2022-12-29T01:56:11;10.90;99.90
25058;DHT22;13057;50.978;11.034;2022-12-29T01:58:41;10.90;99.90
25058;DHT22;13057;50.978;11.034;2022-12-29T02:01:08;10.90;99.90
25058;DHT22;13057;50.978;11.034;2022-12-29T02:03:35;10.90;99.90
25058;DHT22;13057;50.978;11.034;2022-12-29T02:06:10;10.90;99.90
25058;DHT22;13057;50.978;11.034;2022-12-29T02:08:38;10.90;99.90
25058;DHT22;13057;50.978;11.034;2022-12-29T02:11:05;10.90;99.90
25058;DHT22;13057;50.978;11.034;2022-12-29T02:13:31;10.90;99.90
25058;DHT22;13057;50.978;11.034;2022-12-29T02:16:22;11.00;99.90
25058;DHT22;13057;50.978;11.034;2022-12-29T02:19:08;11.00;99.90
25058;DHT22;13057;50.978;11.034;2022-12-29T02:21:56;11.00;99.90
25058;DHT22;13057;50.978;11.034;2022-12-29T02:24:45;11.00;99.90
25058;DHT22;13057;50.978;11.034;2022-12-29T02:27:40;11.00;99.90
25058;DHT22;13057;50.978;11.034;2022-12-29T02:33:21;10.90;99.90
25058;DHT22;13057;50.978;11.034;2022-12-29T02:36:01;10.90;99.90
25058;DHT22;13057;50.978;11.034;2022-12-29T02:38:45;10.90;99.90
25058;DHT22;13057;50.978;11.034;2022-12-29T02:41:28;10.90;99.90
25058;DHT22;13057;50.978;11.034;2022-12-29T02:44:04;10.90;99.90
25058;DHT22;13057;50.978;11.034;2022-12-29T02:46:38;10.90;99.90
25058;DHT22;13057;50.978;11.034;2022-12-29T02:49:15;10.90;99.90
25058;DHT22;13057;50.978;11.034;2022-12-29T02:51:58;10.90;99.90
25058;DHT22;13057;50.978;11.034;2022-12-29T02:54:25;10.90;99.90
25058;DHT22;13057;50.978;11.034;2022-12-29T02:57:10;10.80;99.90
25058;DHT22;13057;50.978;11.034;2022-12-29T02:59:37;10.80;99.90
25058;DHT22;13057;50.978;11.034;2022-12-29T03:02:27;10.80;99.90
25058;DHT22;13057;50.978;11.034;2022-12-29T03:05:19;10.80;99.90
25058;DHT22;13057;50.978;11.034;2022-12-29T03:10:48;10.80;99.90
25058;DHT22;13057;50.978;11.034;2022-12-29T03:13:25;10.80;99.90
25058;DHT22;13057;50.978;11.034;2022-12-29T03:16:20;10.90;99.90
25058;DHT22;13057;50.978;11.034;2022-12-29T03:19:23;10.90;99.90
25058;DHT22;13057;50.978;11.034;2022-12-29T03:21:57;10.80;99.90
25058;DHT22;13057;50.978;11.034;2022-12-29T03:24:40;10.80;99.90
25058;DHT22;13057;50.978;11.034;2022-12-29T03:27:10;10.90;99.90
25058;DHT22;13057;50.978;11.034;2022-12-29T03:29:43;10.90;99.90
25058;DHT22;13057;50.978;11.034;2022-12-29T03:32:12;10.90;99.90
25058;DHT22;13057;50.978;11.034;2022-12-29T03:34:40;11.00;99.90
25058;DHT22;13057;50.978;11.034;2022-12-29T03:37:12;10.90;99.90
25058;DHT22;13057;50.978;11.034;2022-12-29T03:39:40;11.00;99.90
25058;DHT22;13057;50.978;11.034;2022-12-29T03:42:11;11.00;99.90
25058;DHT22;13057;50.978;11.034;2022-12-29T03:44:40;11.00;99.90
25058;DHT22;13057;50.978;11.034;2022-12-29T03:47:09;11.00;99.90
25058;DHT22;13057;50.978;11.034;2022-12-29T03:49:35;11.10;99.90
25058;DHT22;13057;50.978;11.034;2022-12-29T03:52:01;11.10;99.90
25058;DHT22;13057;50.978;11.034;2022-12-29T03:54:27;11.20;99.90
25058;DHT22;13057;50.978;11.034;2022-12-29T03:56:53;11.20;99.90
25058;DHT22;13057;50.978;11.034;2022-12-29T03:59:18;11.20;99.90
25058;DHT22;13057;50.978;11.034;2022-12-29T04:01:45;11.20;99.90
25058;DHT22;13057;50.978;11.034;2022-12-29T04:04:12;11.20;99.90
25058;DHT22;13057;50.978;11.034;2022-12-29T04:06:37;11.30;99.90
25058;DHT22;13057;50.978;11.034;2022-12-29T04:09:03;11.40;99.90
25058;DHT22;13057;50.978;11.034;2022-12-29T04:11:29;11.30;99.90
25058;DHT22;13057;50.978;11.034;2022-12-29T04:13:55;11.20;99.90
25058;DHT22;13057;50.978;11.034;2022-12-29T04:16:21;11.20;99.90
25058;DHT22;13057;50.978;11.034;2022-12-29T04:18:47;11.20;99.90
25058;DHT22;13057;50.978;11.034;2022-12-29T04:21:13;11.20;99.90
25058;DHT22;13057;50.978;11.034;2022-12-29T04:23:39;11.10;99.90
25058;DHT22;13057;50.978;11.034;2022-12-29T04:26:06;11.10;99.90
25058;DHT22;13057;50.978;11.034;2022-12-29T04:28:33;11.10;99.90
25058;DHT22;13057;50.978;11.034;2022-12-29T04:30:59;11.00;99.90
25058;DHT22;13057;50.978;11.034;2022-12-29T04:33:25;11.00;99.90
25058;DHT22;13057;50.978;11.034;2022-12-29T04:35:51;11.00;99.90
25058;DHT22;13057;50.978;11.034;2022-12-29T04:38:20;11.00;99.90
25058;DHT22;13057;50.978;11.034;2022-12-29T04:40:47;11.00;99.90
25058;DHT22;13057;50.978;11.034;2022-12-29T04:43:13;11.00;99.90
25058;DHT22;13057;50.978;11.034;2022-12-29T04:45:44;11.00;99.90
25058;DHT22;13057;50.978;11.034;2022-12-29T04:48:10;11.00;99.90
25058;DHT22;13057;50.978;11.034;2022-12-29T04:50:37;11.00;99.90
25058;DHT22;13057;50.978;11.034;2022-12-29T04:53:03;11.00;99.90
25058;DHT22;13057;50.978;11.034;2022-12-29T04:55:29;11.00;99.90
25058;DHT22;13057;50.978;11.034;2022-12-29T04:57:54;11.10;99.90
25058;DHT22;13057;50.978;11.034;2022-12-29T05:00:20;11.10;99.90
25058;DHT22;13057;50.978;11.034;2022-12-29T05:02:46;11.10;99.90
25058;DHT22;13057;50.978;11.034;2022-12-29T05:05:12;11.10;99.90
25058;DHT22;13057;50.978;11.034;2022-12-29T05:07:38;11.20;99.90
25058;DHT22;13057;50.978;11.034;2022-12-29T05:10:05;11.20;99.90
25058;DHT22;13057;50.978;11.034;2022-12-29T05:12:32;11.20;99.90
25058;DHT22;13057;50.978;11.034;2022-12-29T05:14:58;11.30;99.90
25058;DHT22;13057;50.978;11.034;2022-12-29T05:17:26;11.30;99.90
25058;DHT22;13057;50.978;11.034;2022-12-29T05:19:52;11.30;99.90
25058;DHT22;13057;50.978;11.034;2022-12-29T05:22:18;11.30;99.90
25058;DHT22;13057;50.978;11.034;2022-12-29T05:24:43;11.30;99.90
25058;DHT22;13057;50.978;11.034;2022-12-29T05:27:10;11.20;99.90
25058;DHT22;13057;50.978;11.034;2022-12-29T05:29:35;11.30;99.90
25058;DHT22;13057;50.978;11.034;2022-12-29T05:32:01;11.30;99.90
25058;DHT22;13057;50.978;11.034;2022-12-29T05:34:27;11.40;99.90
25058;DHT22;13057;50.978;11.034;2022-12-29T05:36:53;11.40;99.90
25058;DHT22;13057;50.978;11.034;2022-12-29T05:39:19;11.40;99.90
25058;DHT22;13057;50.978;11.034;2022-12-29T05:41:45;11.40;99.90
25058;DHT22;13057;50.978;11.034;2022-12-29T05:44:11;11.40;99.90
25058;DHT22;13057;50.978;11.034;2022-12-29T05:46:37;11.40;99.90
25058;DHT22;13057;50.978;11.034;2022-12-29T05:49:03;11.40;99.90
25058;DHT22;13057;50.978;11.034;2022-12-29T05:51:29;11.30;99.90
25058;DHT22;13057;50.978;11.034;2022-12-29T05:53:55;11.30;99.90
25058;DHT22;13057;50.978;11.034;2022-12-29T05:56:21;11.30;99.90
25058;DHT22;13057;50.978;11.034;2022-12-29T05:58:47;11.30;99.90
25058;DHT22;13057;50.978;11.034;2022-12-29T06:01:13;11.40;99.90
25058;DHT22;13057;50.978;11.034;2022-12-29T06:03:39;11.40;99.90
25058;DHT22;13057;50.978;11.034;2022-12-29T06:06:05;11.50;99.90
25058;DHT22;13057;50.978;11.034;2022-12-29T06:08:31;11.40;99.90
25058;DHT22;13057;50.978;11.034;2022-12-29T06:10:57;11.40;99.90
25058;DHT22;13057;50.978;11.034;2022-12-29T06:13:23;11.40;99.90
25058;DHT22;13057;50.978;11.034;2022-12-29T06:15:49;11.40;99.90
25058;DHT22;13057;50.978;11.034;2022-12-29T06:18:15;11.40;99.90
25058;DHT22;13057;50.978;11.034;2022-12-29T06:20:41;11.40;99.90
25058;DHT22;13057;50.978;11.034;2022-12-29T06:23:07;11.40;99.90
25058;DHT22;13057;50.978;11.034;2022-12-29T06:25:33;11.40;99.90
25058;DHT22;13057;50.978;11.034;2022-12-29T06:28:01;11.40;99.90
25058;DHT22;13057;50.978;11.034;2022-12-29T06:30:27;11.40;99.90
25058;DHT22;13057;50.978;11.034;2022-12-29T06:32:53;11.30;99.90
25058;DHT22;13057;50.978;11.034;2022-12-29T06:35:20;11.30;99.90
25058;DHT22;13057;50.978;11.034;2022-12-29T06:37:48;11.40;99.90
25058;DHT22;13057;50.978;11.034;2022-12-29T06:40:14;11.40;99.90
25058;DHT22;13057;50.978;11.034;2022-12-29T06:42:40;11.40;99.90
25058;DHT22;13057;50.978;11.034;2022-12-29T06:45:06;11.40;99.90
25058;DHT22;13057;50.978;11.034;2022-12-29T06:47:33;11.50;99.90
25058;DHT22;13057;50.978;11.034;2022-12-29T06:50:00;11.50;99.90
25058;DHT22;13057;50.978;11.034;2022-12-29T06:52:26;11.50;99.90
25058;DHT22;13057;50.978;11.034;2022-12-29T06:54:52;11.50;99.90
25058;DHT22;13057;50.978;11.034;2022-12-29T06:57:17;11.50;99.90
25058;DHT22;13057;50.978;11.034;2022-12-29T06:59:43;11.50;99.90
25058;DHT22;13057;50.978;11.034;2022-12-29T07:02:11;11.50;99.90
25058;DHT22;13057;50.978;11.034;2022-12-29T07:04:36;11.50;99.90
25058;DHT22;13057;50.978;11.034;2022-12-29T07:07:03;11.60;99.90
25058;DHT22;13057;50.978;11.034;2022-12-29T07:09:28;11.60;99.90
25058;DHT22;13057;50.978;11.034;2022-12-29T07:11:54;11.60;99.90
25058;DHT22;13057;50.978;11.034;2022-12-29T07:14:20;11.70;99.90
25058;DHT22;13057;50.978;11.034;2022-12-29T07:16:46;11.70;99.90
25058;DHT22;13057;50.978;11.034;2022-12-29T07:19:12;11.70;99.90
25058;DHT22;13057;50.978;11.034;2022-12-29T07:21:38;11.70;99.90
25058;DHT22;13057;50.978;11.034;2022-12-29T07:24:04;11.80;99.90
25058;DHT22;13057;50.978;11.034;2022-12-29T07:26:30;11.80;99.90
25058;DHT22;13057;50.978;11.034;2022-12-29T07:28:56;11.90;99.90
25058;DHT22;13057;50.978;11.034;2022-12-29T07:31:22;11.90;99.90
25058;DHT22;13057;50.978;11.034;2022-12-29T07:33:49;12.00;99.90
25058;DHT22;13057;50.978;11.034;2022-12-29T07:36:15;12.00;99.90
25058;DHT22;13057;50.978;11.034;2022-12-29T07:38:42;12.10;99.90
25058;DHT22;13057;50.978;11.034;2022-12-29T07:41:08;12.10;99.90
25058;DHT22;13057;50.978;11.034;2022-12-29T07:43:34;12.00;99.90
25058;DHT22;13057;50.978;11.034;2022-12-29T07:46:00;12.10;99.90
25058;DHT22;13057;50.978;11.034;2022-12-29T07:48:26;12.10;99.90
25058;DHT22;13057;50.978;11.034;2022-12-29T07:50:52;12.10;99.90
25058;DHT22;13057;50.978;11.034;2022-12-29T07:53:18;12.00;99.90
25058;DHT22;13057;50.978;11.034;2022-12-29T07:55:44;12.00;99.90
25058;DHT22;13057;50.978;11.034;2022-12-29T07:58:10;12.00;99.90
25058;DHT22;13057;50.978;11.034;2022-12-29T08:00:38;12.00;99.90
25058;DHT22;13057;50.978;11.034;2022-12-29T08:03:04;12.00;99.90
25058;DHT22;13057;50.978;11.034;2022-12-29T08:05:31;12.00;99.90
25058;DHT22;13057;50.978;11.034;2022-12-29T08:07:57;12.00;99.90
25058;DHT22;13057;50.978;11.034;2022-12-29T08:10:25;12.00;99.90
25058;DHT22;13057;50.978;11.034;2022-12-29T08:12:54;12.00;99.90
25058;DHT22;13057;50.978;11.034;2022-12-29T08:15:20;12.00;99.90
25058;DHT22;13057;50.978;11.034;2022-12-29T08:17:46;12.00;99.90
25058;DHT22;13057;50.978;11.034;2022-12-29T08:20:15;12.10;99.90
25058;DHT22;13057;50.978;11.034;2022-12-29T08:22:41;12.10;99.90
25058;DHT22;13057;50.978;11.034;2022-12-29T08:25:07;12.10;99.90
25058;DHT22;13057;50.978;11.034;2022-12-29T08:27:33;12.30;99.90
25058;DHT22;13057;50.978;11.034;2022-12-29T08:29:59;12.30;99.90
25058;DHT22;13057;50.978;11.034;2022-12-29T08:32:27;12.30;99.90
25058;DHT22;13057;50.978;11.034;2022-12-29T08:34:54;12.20;99.90
25058;DHT22;13057;50.978;11.034;2022-12-29T08:37:47;12.20;99.90
25058;DHT22;13057;50.978;11.034;2022-12-29T08:40:13;12.20;99.90
25058;DHT22;13057;50.978;11.034;2022-12-29T08:42:39;12.30;99.90
25058;DHT22;13057;50.978;11.034;2022-12-29T08:45:06;12.30;99.90
25058;DHT22;13057;50.978;11.034;2022-12-29T08:47:32;12.30;99.90
25058;DHT22;13057;50.978;11.034;2022-12-29T08:49:58;12.30;99.90
25058;DHT22;13057;50.978;11.034;2022-12-29T08:52:24;12.40;99.90
25058;DHT22;13057;50.978;11.034;2022-12-29T08:54:55;12.50;99.90
25058;DHT22;13057;50.978;11.034;2022-12-29T08:57:22;12.50;99.90
25058;DHT22;13057;50.978;11.034;2022-12-29T08:59:47;12.50;99.90
25058;DHT22;13057;50.978;11.034;2022-12-29T09:02:13;12.60;99.90
25058;DHT22;13057;50.978;11.034;2022-12-29T09:04:45;12.60;99.90
25058;DHT22;13057;50.978;11.034;2022-12-29T09:07:11;12.50;99.90
25058;DHT22;13057;50.978;11.034;2022-12-29T09:09:38;12.50;99.90
25058;DHT22;13057;50.978;11.034;2022-12-29T09:12:04;12.50;99.90
25058;DHT22;13057;50.978;11.034;2022-12-29T09:14:31;12.50;99.90
25058;DHT22;13057;50.978;11.034;2022-12-29T09:16:57;12.50;99.90
25058;DHT22;13057;50.978;11.034;2022-12-29T09:19:35;12.50;99.90
25058;DHT22;13057;50.978;11.034;2022-12-29T09:22:01;12.50;99.90
25058;DHT22;13057;50.978;11.034;2022-12-29T09:24:27;12.50;99.90
25058;DHT22;13057;50.978;11.034;2022-12-29T09:26:53;12.50;99.90
25058;DHT22;13057;50.978;11.034;2022-12-29T09:29:22;12.50;99.90
25058;DHT22;13057;50.978;11.034;2022-12-29T09:31:48;12.50;99.90
25058;DHT22;13057;50.978;11.034;2022-12-29T09:34:14;12.60;99.90
25058;DHT22;13057;50.978;11.034;2022-12-29T09:36:41;12.60;99.90
25058;DHT22;13057;50.978;11.034;2022-12-29T09:39:07;12.70;99.90
25058;DHT22;13057;50.978;11.034;2022-12-29T09:41:43;12.70;99.90
25058;DHT22;13057;50.978;11.034;2022-12-29T09:44:24;12.60;99.90
25058;DHT22;13057;50.978;11.034;2022-12-29T09:46:53;12.60;99.90
25058;DHT22;13057;50.978;11.034;2022-12-29T09:49:28;12.60;99.90
25058;DHT22;13057;50.978;11.034;2022-12-29T09:52:00;12.60;99.90
25058;DHT22;13057;50.978;11.034;2022-12-29T09:54:39;12.60;99.90
25058;DHT22;13057;50.978;11.034;2022-12-29T09:57:25;12.70;99.90
25058;DHT22;13057;50.978;11.034;2022-12-29T09:59:57;12.70;99.90
25058;DHT22;13057;50.978;11.034;2022-12-29T10:02:34;12.70;99.90
25058;DHT22;13057;50.978;11.034;2022-12-29T10:05:02;12.70;99.90
25058;DHT22;13057;50.978;11.034;2022-12-29T10:07:38;12.70;99.90
25058;DHT22;13057;50.978;11.034;2022-12-29T10:10:17;12.70;99.90
25058;DHT22;13057;50.978;11.034;2022-12-29T10:13:07;12.70;99.90
25058;DHT22;13057;50.978;11.034;2022-12-29T10:15:54;12.70;99.90
25058;DHT22;13057;50.978;11.034;2022-12-29T10:18:40;12.80;99.90
25058;DHT22;13057;50.978;11.034;2022-12-29T10:21:30;12.80;99.90
25058;DHT22;13057;50.978;11.034;2022-12-29T10:24:02;12.80;99.90
25058;DHT22;13057;50.978;11.034;2022-12-29T10:26:36;12.80;99.90
25058;DHT22;13057;50.978;11.034;2022-12-29T10:29:06;12.90;99.90
25058;DHT22;13057;50.978;11.034;2022-12-29T10:31:38;12.90;99.90
25058;DHT22;13057;50.978;11.034;2022-12-29T10:34:17;13.00;99.90
25058;DHT22;13057;50.978;11.034;2022-12-29T10:36:48;13.00;99.90
25058;DHT22;13057;50.978;11.034;2022-12-29T10:39:22;13.00;99.90
25058;DHT22;13057;50.978;11.034;2022-12-29T10:41:53;13.00;99.90
25058;DHT22;13057;50.978;11.034;2022-12-29T10:44:21;13.00;99.90
25058;DHT22;13057;50.978;11.034;2022-12-29T10:46:56;13.00;99.90
25058;DHT22;13057;50.978;11.034;2022-12-29T10:49:22;13.00;99.90
25058;DHT22;13057;50.978;11.034;2022-12-29T10:51:51;13.00;99.90
25058;DHT22;13057;50.978;11.034;2022-12-29T10:54:27;12.90;99.90
25058;DHT22;13057;50.978;11.034;2022-12-29T10:57:01;12.90;99.90
25058;DHT22;13057;50.978;11.034;2022-12-29T10:59:31;13.00;99.90
25058;DHT22;13057;50.978;11.034;2022-12-29T11:02:22;13.00;99.90
25058;DHT22;13057;50.978;11.034;2022-12-29T11:05:04;13.00;99.90
25058;DHT22;13057;50.978;11.034;2022-12-29T11:07:33;13.00;99.90
25058;DHT22;13057;50.978;11.034;2022-12-29T11:10:17;13.00;99.90
25058;DHT22;13057;50.978;11.034;2022-12-29T11:12:59;13.00;99.90
25058;DHT22;13057;50.978;11.034;2022-12-29T11:15:26;13.10;99.90
25058;DHT22;13057;50.978;11.034;2022-12-29T11:17:57;13.10;99.90
25058;DHT22;13057;50.978;11.034;2022-12-29T11:20:31;13.20;99.90
25058;DHT22;13057;50.978;11.034;2022-12-29T11:22:58;13.20;99.90
25058;DHT22;13057;50.978;11.034;2022-12-29T11:25:27;13.20;99.90
25058;DHT22;13057;50.978;11.034;2022-12-29T11:27:59;13.20;99.90
25058;DHT22;13057;50.978;11.034;2022-12-29T11:30:28;13.20;99.90
25058;DHT22;13057;50.978;11.034;2022-12-29T11:32:55;13.20;99.90
25058;DHT22;13057;50.978;11.034;2022-12-29T11:35:35;13.30;99.90
25058;DHT22;13057;50.978;11.034;2022-12-29T11:38:02;13.30;99.90
25058;DHT22;13057;50.978;11.034;2022-12-29T11:40:29;13.30;99.90
25058;DHT22;13057;50.978;11.034;2022-12-29T11:42:59;13.30;99.90
25058;DHT22;13057;50.978;11.034;2022-12-29T11:45:30;13.30;99.90
25058;DHT22;13057;50.978;11.034;2022-12-29T11:48:01;13.30;99.90
25058;DHT22;13057;50.978;11.034;2022-12-29T11:50:33;13.30;99.90
25058;DHT22;13057;50.978;11.034;2022-12-29T11:53:15;13.30;99.90
25058;DHT22;13057;50.978;11.034;2022-12-29T11:55:52;13.30;99.90
25058;DHT22;13057;50.978;11.034;2022-12-29T11:58:19;13.30;99.90
25058;DHT22;13057;50.978;11.034;2022-12-29T12:00:45;13.20;99.90
25058;DHT22;13057;50.978;11.034;2022-12-29T12:03:21;13.10;99.90
25058;DHT22;13057;50.978;11.034;2022-12-29T12:05:53;13.00;99.90
25058;DHT22;13057;50.978;11.034;2022-12-29T12:08:32;13.00;99.90
25058;DHT22;13057;50.978;11.034;2022-12-29T12:11:10;13.00;99.90
25058;DHT22;13057;50.978;11.034;2022-12-29T12:13:47;12.90;99.90
25058;DHT22;13057;50.978;11.034;2022-12-29T12:16:20;12.90;99.90
25058;DHT22;13057;50.978;11.034;2022-12-29T12:18:55;12.90;99.90
25058;DHT22;13057;50.978;11.034;2022-12-29T12:21:26;12.90;99.90
25058;DHT22;13057;50.978;11.034;2022-12-29T12:24:09;13.00;99.90
25058;DHT22;13057;50.978;11.034;2022-12-29T12:27:02;13.00;99.90
25058;DHT22;13057;50.978;11.034;2022-12-29T12:29:52;13.00;99.90
25058;DHT22;13057;50.978;11.034;2022-12-29T12:35:04;13.20;99.90
25058;DHT22;13057;50.978;11.034;2022-12-29T12:37:49;13.10;99.90
25058;DHT22;13057;50.978;11.034;2022-12-29T12:40:47;13.00;99.90
25058;DHT22;13057;50.978;11.034;2022-12-29T12:46:29;12.90;99.90
25058;DHT22;13057;50.978;11.034;2022-12-29T12:49:16;12.90;99.90
25058;DHT22;13057;50.978;11.034;2022-12-29T12:55:00;12.80;99.90
25058;DHT22;13057;50.978;11.034;2022-12-29T12:57:52;12.70;99.90
25058;DHT22;13057;50.978;11.034;2022-12-29T13:00:20;12.70;99.90
25058;DHT22;13057;50.978;11.034;2022-12-29T13:03:04;12.70;99.90
25058;DHT22;13057;50.978;11.034;2022-12-29T13:06:04;12.70;99.90
25058;DHT22;13057;50.978;11.034;2022-12-29T13:08:46;12.70;99.90
25058;DHT22;13057;50.978;11.034;2022-12-29T13:11:51;12.70;99.90
25058;DHT22;13057;50.978;11.034;2022-12-29T13:14:24;12.60;99.90
25058;DHT22;13057;50.978;11.034;2022-12-29T13:17:08;12.70;99.90
25058;DHT22;13057;50.978;11.034;2022-12-29T13:19:50;12.70;99.90
25058;DHT22;13057;50.978;11.034;2022-12-29T13:22:34;12.80;99.90
25058;DHT22;13057;50.978;11.034;2022-12-29T13:25:25;12.80;99.90
25058;DHT22;13057;50.978;11.034;2022-12-29T13:31:26;13.00;99.90
25058;DHT22;13057;50.978;11.034;2022-12-29T13:34:14;13.10;99.90
25058;DHT22;13057;50.978;11.034;2022-12-29T13:36:45;13.10;99.90
25058;DHT22;13057;50.978;11.034;2022-12-29T13:39:21;13.00;99.90
25058;DHT22;13057;50.978;11.034;2022-12-29T13:41:54;13.00;99.90
25058;DHT22;13057;50.978;11.034;2022-12-29T13:44:23;13.00;99.90
25058;DHT22;13057;50.978;11.034;2022-12-29T13:46:50;12.90;99.90
25058;DHT22;13057;50.978;11.034;2022-12-29T13:49:19;12.80;99.90
25058;DHT22;13057;50.978;11.034;2022-12-29T13:51:53;12.90;99.90
25058;DHT22;13057;50.978;11.034;2022-12-29T13:54:35;12.90;99.90
25058;DHT22;13057;50.978;11.034;2022-12-29T13:57:10;12.80;99.90
25058;DHT22;13057;50.978;11.034;2022-12-29T13:59:51;12.90;99.90
25058;DHT22;13057;50.978;11.034;2022-12-29T14:02:38;12.90;99.90
25058;DHT22;13057;50.978;11.034;2022-12-29T14:05:29;13.10;99.90
25058;DHT22;13057;50.978;11.034;2022-12-29T14:07:59;13.10;99.90
25058;DHT22;13057;50.978;11.034;2022-12-29T14:10:32;13.00;99.90
25058;DHT22;13057;50.978;11.034;2022-12-29T14:13:04;13.10;99.90
25058;DHT22;13057;50.978;11.034;2022-12-29T14:15:32;13.00;99.90
25058;DHT22;13057;50.978;11.034;2022-12-29T14:18:13;12.80;99.90
25058;DHT22;13057;50.978;11.034;2022-12-29T14:20:57;12.70;99.90
25058;DHT22;13057;50.978;11.034;2022-12-29T14:23:42;12.70;99.90
25058;DHT22;13057;50.978;11.034;2022-12-29T14:26:12;12.60;99.90
25058;DHT22;13057;50.978;11.034;2022-12-29T14:28:42;12.60;99.90
25058;DHT22;13057;50.978;11.034;2022-12-29T14:34:16;12.50;99.90
25058;DHT22;13057;50.978;11.034;2022-12-29T14:36:55;12.60;99.90
25058;DHT22;13057;50.978;11.034;2022-12-29T14:39:40;12.70;99.90
25058;DHT22;13057;50.978;11.034;2022-12-29T14:42:15;12.70;99.90
25058;DHT22;13057;50.978;11.034;2022-12-29T14:47:34;12.50;99.90
25058;DHT22;13057;50.978;11.034;2022-12-29T14:50:10;12.40;99.90
25058;DHT22;13057;50.978;11.034;2022-12-29T14:52:48;12.40;99.90
25058;DHT22;13057;50.978;11.034;2022-12-29T14:55:43;12.30;99.90
25058;DHT22;13057;50.978;11.034;2022-12-29T14:58:20;12.30;99.70
25058;DHT22;13057;50.978;11.034;2022-12-29T15:00:47;12.30;99.70
25058;DHT22;13057;50.978;11.034;2022-12-29T15:03:34;12.30;99.70
25058;DHT22;13057;50.978;11.034;2022-12-29T15:06:08;12.30;99.60
25058;DHT22;13057;50.978;11.034;2022-12-29T15:08:54;12.30;99.50
25058;DHT22;13057;50.978;11.034;2022-12-29T15:11:28;12.30;99.70
25058;DHT22;13057;50.978;11.034;2022-12-29T15:13:57;12.20;99.70
25058;DHT22;13057;50.978;11.034;2022-12-29T15:16:29;12.20;99.70
25058;DHT22;13057;50.978;11.034;2022-12-29T15:19:04;12.20;99.90
25058;DHT22;13057;50.978;11.034;2022-12-29T15:21:46;12.10;99.80
25058;DHT22;13057;50.978;11.034;2022-12-29T15:24:12;12.10;99.90
25058;DHT22;13057;50.978;11.034;2022-12-29T15:26:42;12.10;99.90
25058;DHT22;13057;50.978;11.034;2022-12-29T15:32:00;12.00;99.90
25058;DHT22;13057;50.978;11.034;2022-12-29T15:34:30;12.00;99.90
25058;DHT22;13057;50.978;11.034;2022-12-29T15:36:56;12.00;99.90
25058;DHT22;13057;50.978;11.034;2022-12-29T15:39:29;12.00;99.90
25058;DHT22;13057;50.978;11.034;2022-12-29T15:42:02;12.00;99.90
25058;DHT22;13057;50.978;11.034;2022-12-29T15:44:38;11.90;99.90
25058;DHT22;13057;50.978;11.034;2022-12-29T15:47:16;11.90;99.90
25058;DHT22;13057;50.978;11.034;2022-12-29T15:49:47;11.90;99.90
25058;DHT22;13057;50.978;11.034;2022-12-29T15:52:19;11.80;99.90
25058;DHT22;13057;50.978;11.034;2022-12-29T15:54:47;11.80;99.90
25058;DHT22;13057;50.978;11.034;2022-12-29T15:57:28;11.70;99.90
25058;DHT22;13057;50.978;11.034;2022-12-29T15:59:55;11.70;99.90
25058;DHT22;13057;50.978;11.034;2022-12-29T16:02:22;11.70;99.90
25058;DHT22;13057;50.978;11.034;2022-12-29T16:04:50;11.60;99.90
25058;DHT22;13057;50.978;11.034;2022-12-29T16:07:30;11.60;99.90
25058;DHT22;13057;50.978;11.034;2022-12-29T16:10:27;11.60;99.90